Tustin, Wisconsin
Current Conditions -  °F | °C
As of 1:35 PM on Thursday 23 Oct 2014 (Local Time) from KPCZ Reporting Station
Light Rain Light Rain  
Wind Chill: 46°   Ceiling: 900
Heat Index: 48°   Visibility: 2.5mi
Dew Point: 47°   Wind: 6mph
Humidity: 95%   Direction: 160°SSE
Pressure: 30.07"   Gusts: NA
Location:  44.2033°N, 88.9001°W
Report Text: KPCZ 231835Z AUTO 16005KT 2 1/2SM -RA BKN009 BKN014 OVC028 09/08 A3007 RMK AO2 P0006 T00900082
Loading
Personal Weather Stations






























Interactive Weather Map
Tropical Storm Tracking
New forecast layout! Learn more

10-Day Weather Forecast

Advertisements
Track Severe Weather on mobile